首页
METAR-TAF:

METAR-TAF

机场 :

特里布万国际机场

加德滿都, 尼泊尔

纬度: 27-42N, 经度: 085-22E, 海拔: 1337米

当前天气观测

该预报发布于8分钟前的01:50 UTC
风速3节,风向
温度 23°C
湿度 78%
气压 1012 hPa
能見度: 3000
少量云层高于1500英尺
散云层高于3000英尺
多云层高于10000英尺
轻雾

METAR: VNKT 260150Z 18003KT 3000 BR FEW015 SCT030 BKN100 23/19 Q1012 NOSIG

时间: 07:43 (01:58 UTC)

预报

该预报发布于2小时和58分钟前的23:00 UTC
预报有效从26日的 00点(UTC)到 26日的 24点(UTC)
风速2节,风向多变
能見度: 4000
少量云层高于1500英尺
散云层高于3000英尺
多云层高于10000英尺
几率 40%
从 26日的 01点(UTC)到 26日的 03点(UTC)
能見度: 2000
轻雾
成为
从 26日的 04点(UTC)到 26日的 05点(UTC)
风速3节,风向东南
能見度: 6000
少量云层高于1500英尺
散云层高于10000英尺
成为
从 26日的 07点(UTC)到 26日的 08点(UTC)
风速8节,风向西转西北
能見度: 8000
少量云层高于2000英尺
散云层高于3000英尺
多云层高于10000英尺
几率 30%
从 26日的 08点(UTC)到 26日的 12点(UTC)
风速10节,风向多变
能見度: 4000
少量云层高于2500英尺, 积雨云.
多云层高于10000英尺
雷暴, 小雨
成为
从 26日的 14点(UTC)到 26日的 15点(UTC)
风速3节,风向东转东南
能見度: 6000
少量云层高于1500英尺
散云层高于3000英尺

TAF: VNKT 252300Z 2600/2624 VRB02KT 4000 BR/-RA FEW015 SCT030 BKN100 PROB40 2601/2603 2000 BR BECMG 2604/2605 13003KT 6000 FEW015 SCT100 BECMG 2607/2608 29008KT 8000 FEW020 SCT030 BKN100 PROB30 2608/2612 VRB10KT 4000 -TSRA FEW025CB BKN100 BECMG 2614/2615 11003KT 6000 FEW015 SCT030

超过4000个机场的气象观测和天气预报(METAR&TAF报告)。

可查询的气象台以黄色和红色小点在地图上表示。

将鼠标移到小点上方,可查看气象台名称。

然后点击查看天气观测和预报。

如需切换地图:点击带黑十字的绿色按钮放大地图;点击带横线的绿色按钮缩小地图;或者点击绿色箭头查看邻近地区的地图。


METAR-TAF: